createdAt,value
2022-08-26T00:00:23.789Z,21.98
2022-08-26T00:05:29.782Z,21.93
2022-08-26T00:10:37.331Z,21.86
2022-08-26T00:15:43.219Z,21.74
2022-08-26T00:20:48.427Z,21.61
2022-08-26T00:25:55.775Z,21.55
2022-08-26T00:31:01.610Z,21.48
2022-08-26T00:36:06.808Z,21.34
2022-08-26T00:41:14.061Z,21.27
2022-08-26T00:46:24.022Z,21.19
2022-08-26T00:51:31.040Z,21.06
2022-08-26T00:56:41.350Z,21.02
2022-08-26T01:01:47.564Z,20.98
2022-08-26T01:06:54.611Z,20.92
2022-08-26T01:12:05.329Z,20.90
2022-08-26T01:17:11.058Z,20.75
2022-08-26T01:22:20.333Z,20.64
2022-08-26T01:27:32.404Z,20.55
2022-08-26T01:32:39.052Z,20.52
2022-08-26T01:37:44.469Z,20.51
2022-08-26T01:42:53.237Z,20.48
2022-08-26T01:48:01.312Z,20.46
2022-08-26T01:53:09.500Z,20.44
2022-08-26T01:58:23.924Z,20.42
2022-08-26T02:03:28.851Z,20.40
2022-08-26T02:08:39.679Z,20.38
2022-08-26T02:13:49.946Z,20.32
2022-08-26T02:18:57.918Z,20.26
2022-08-26T02:24:12.092Z,20.21
2022-08-26T02:29:23.630Z,20.19
2022-08-26T02:34:31.342Z,20.18
2022-08-26T02:39:37.888Z,20.14
2022-08-26T02:44:45.048Z,20.09
2022-08-26T02:49:50.018Z,20.02
2022-08-26T02:54:54.985Z,19.85
2022-08-26T03:00:03.594Z,19.76
2022-08-26T03:05:09.433Z,19.73
2022-08-26T03:10:14.495Z,19.71
2022-08-26T03:15:23.339Z,19.67
2022-08-26T03:20:28.059Z,19.51
2022-08-26T03:25:41.009Z,19.39
2022-08-26T03:30:49.327Z,19.28
2022-08-26T03:35:55.768Z,18.97
2022-08-26T03:41:01.306Z,18.71
2022-08-26T03:46:10.538Z,18.58
2022-08-26T03:51:18.395Z,18.42
2022-08-26T03:56:23.641Z,18.41
2022-08-26T04:01:31.560Z,18.40
2022-08-26T04:06:39.731Z,18.39
2022-08-26T04:11:46.444Z,18.37
2022-08-26T04:16:59.510Z,18.37
2022-08-26T04:22:04.198Z,18.36
2022-08-26T04:27:10.490Z,18.33
2022-08-26T04:32:18.300Z,18.34
2022-08-26T04:37:22.916Z,18.31
2022-08-26T04:42:27.560Z,18.29
2022-08-26T04:47:35.002Z,18.30
2022-08-26T04:52:39.544Z,18.29
2022-08-26T04:57:44.252Z,18.34
2022-08-26T05:02:51.587Z,18.40
2022-08-26T05:07:56.338Z,18.46
2022-08-26T05:13:03.580Z,18.52
2022-08-26T05:18:20.836Z,18.61
2022-08-26T05:23:26.759Z,18.64
2022-08-26T05:28:32.429Z,18.69
2022-08-26T05:33:41.364Z,18.75
2022-08-26T05:38:46.453Z,18.78
2022-08-26T05:43:51.028Z,18.82
2022-08-26T05:48:58.549Z,18.91
2022-08-26T05:54:06.967Z,19.01
2022-08-26T05:59:15.989Z,19.12
2022-08-26T06:04:29.336Z,19.23
2022-08-26T06:09:34.376Z,19.34
2022-08-26T06:14:38.864Z,19.39
2022-08-26T06:19:46.564Z,19.45
2022-08-26T06:25:03.674Z,19.58
2022-08-26T06:30:10.768Z,19.67
2022-08-26T06:35:18.338Z,19.75
2022-08-26T06:40:24.631Z,19.91
2022-08-26T06:45:29.642Z,20.08
2022-08-26T06:50:39.528Z,20.33
2022-08-26T06:55:45.854Z,20.58
2022-08-26T07:00:50.499Z,20.82
2022-08-26T07:06:04.267Z,21.03
2022-08-26T07:11:10.294Z,21.25
2022-08-26T07:16:17.830Z,21.46
2022-08-26T07:21:26.122Z,21.68
2022-08-26T07:26:33.150Z,21.93
2022-08-26T07:31:42.859Z,22.25
2022-08-26T07:36:50.473Z,22.57
2022-08-26T07:41:56.050Z,22.89
2022-08-26T07:47:00.575Z,23.26
2022-08-26T07:52:09.340Z,23.63
2022-08-26T07:57:15.758Z,23.95
2022-08-26T08:02:23.830Z,24.18
2022-08-26T08:07:44.286Z,24.30
2022-08-26T08:12:50.462Z,24.46
2022-08-26T08:18:00.609Z,24.56
2022-08-26T08:23:08.159Z,24.67
2022-08-26T08:28:12.785Z,24.75
2022-08-26T08:33:17.498Z,24.84
2022-08-26T08:38:25.999Z,24.90
2022-08-26T08:43:37.690Z,24.98
2022-08-26T08:48:48.773Z,25.05
2022-08-26T08:53:56.628Z,25.13
2022-08-26T08:59:11.182Z,25.29
2022-08-26T09:04:33.282Z,25.40
2022-08-26T09:09:44.547Z,25.54
2022-08-26T09:14:51.857Z,25.77
2022-08-26T09:20:03.848Z,26.05
2022-08-26T09:25:14.104Z,26.21
2022-08-26T09:30:26.557Z,26.36
2022-08-26T09:35:34.154Z,26.51
2022-08-26T09:40:41.560Z,26.59
2022-08-26T09:45:58.418Z,26.78
2022-08-26T09:51:05.991Z,26.88
2022-08-26T09:56:19.910Z,26.93
2022-08-26T10:01:32.320Z,27.02
2022-08-26T10:06:41.338Z,27.18
2022-08-26T10:11:50.765Z,27.44
2022-08-26T10:17:01.616Z,27.64
2022-08-26T10:22:14.953Z,27.83
2022-08-26T10:27:28.584Z,28.05
2022-08-26T10:32:40.839Z,28.30
2022-08-26T10:37:51.726Z,28.42
2022-08-26T10:43:09.941Z,28.47
2022-08-26T10:48:22.338Z,28.69
2022-08-26T10:53:42.550Z,28.68
2022-08-26T10:59:04.577Z,28.42
2022-08-26T11:04:25.591Z,28.40
2022-08-26T11:09:54.537Z,28.10
2022-08-26T11:15:02.051Z,28.24
2022-08-26T11:20:13.743Z,28.28
2022-08-26T11:25:27.748Z,28.30
2022-08-26T11:30:56.987Z,28.44
2022-08-26T11:36:12.026Z,28.69
2022-08-26T11:41:29.379Z,28.97
2022-08-26T11:47:11.357Z,29.28
2022-08-26T11:52:38.376Z,29.54
2022-08-26T11:58:01.056Z,29.74
2022-08-26T12:03:38.934Z,30.06
2022-08-26T12:08:48.219Z,30.42
2022-08-26T12:14:02.664Z,30.60
2022-08-26T12:19:27.486Z,30.67
2022-08-26T12:24:35.191Z,30.36
2022-08-26T12:29:40.058Z,30.10
2022-08-26T12:34:46.351Z,30.02
2022-08-26T12:39:54.284Z,30.12
2022-08-26T12:45:04.385Z,30.51
2022-08-26T12:50:12.384Z,30.91
2022-08-26T12:55:26.020Z,31.25
2022-08-26T13:00:38.027Z,31.61
2022-08-26T13:05:42.970Z,31.96
2022-08-26T13:10:50.511Z,32.31
2022-08-26T13:15:55.712Z,32.36
2022-08-26T13:21:00.574Z,32.03
2022-08-26T13:26:08.002Z,31.22
2022-08-26T13:31:17.864Z,30.65
2022-08-26T13:36:23.360Z,30.30
2022-08-26T13:41:31.970Z,29.94
2022-08-26T13:46:37.180Z,29.77
2022-08-26T13:51:42.683Z,29.82
2022-08-26T13:56:50.125Z,29.85
2022-08-26T14:02:02.923Z,29.96
2022-08-26T14:07:10.990Z,29.98
2022-08-26T14:12:18.386Z,29.91
2022-08-26T14:17:26.289Z,29.65
2022-08-26T14:22:37.922Z,29.42
2022-08-26T14:27:48.010Z,28.66
2022-08-26T14:32:56.652Z,26.72
2022-08-26T14:38:01.261Z,25.40
2022-08-26T14:43:09.668Z,23.73
2022-08-26T14:48:14.995Z,22.69
2022-08-26T14:53:32.221Z,22.32
2022-08-26T14:58:39.558Z,21.69
2022-08-26T15:03:44.903Z,21.52
2022-08-26T15:08:49.830Z,20.72
2022-08-26T15:13:57.482Z,19.99
2022-08-26T15:19:04.312Z,19.82
2022-08-26T15:24:09.133Z,19.71
2022-08-26T15:29:17.030Z,19.83
2022-08-26T15:34:22.905Z,19.81
2022-08-26T15:39:27.818Z,19.83
2022-08-26T15:44:36.999Z,19.88
2022-08-26T15:49:46.310Z,19.89
2022-08-26T17:14:43.857Z,19.85
2022-08-26T17:19:50.505Z,19.90
2022-08-26T17:24:55.164Z,19.88
2022-08-26T17:30:02.381Z,19.92
2022-08-26T17:35:09.395Z,19.93
2022-08-26T17:40:29.299Z,19.93
2022-08-26T17:45:36.655Z,19.92
2022-08-26T17:50:41.797Z,19.91
2022-08-26T17:55:46.514Z,19.87
2022-08-26T18:00:55.821Z,19.84
2022-08-26T18:06:00.524Z,19.84
2022-08-26T18:11:10.159Z,19.78
2022-08-26T18:16:19.453Z,19.64
2022-08-26T18:21:26.456Z,19.59
2022-08-26T18:26:39.076Z,19.54
2022-08-26T18:31:49.638Z,19.50
2022-08-26T18:36:57.716Z,19.54
2022-08-26T18:42:10.397Z,19.51
2022-08-26T18:47:26.914Z,19.47
2022-08-26T18:52:31.441Z,19.43
2022-08-26T18:57:45.140Z,19.47
2022-08-26T19:02:56.004Z,19.47
2022-08-26T19:08:03.258Z,19.49
2022-08-26T19:13:09.389Z,19.53
2022-08-26T19:18:20.073Z,19.56
2022-08-26T19:23:32.685Z,19.56
2022-08-26T19:28:39.723Z,19.55
2022-08-26T19:33:47.225Z,19.54
2022-08-26T19:38:55.922Z,19.52
2022-08-26T19:44:01.854Z,19.40
2022-08-26T19:49:11.241Z,19.40
2022-08-26T19:54:16.044Z,19.39
2022-08-26T19:59:20.823Z,19.39
2022-08-26T20:04:27.988Z,19.39
2022-08-26T20:09:34.141Z,19.38
2022-08-26T20:14:39.365Z,19.38
2022-08-26T20:19:59.013Z,19.40
2022-08-26T20:25:03.794Z,19.42
2022-08-26T20:30:11.094Z,19.44
2022-08-26T20:35:18.811Z,19.44
2022-08-26T20:40:24.210Z,19.45
2022-08-26T20:45:28.885Z,19.45
2022-08-26T20:50:36.195Z,19.42
2022-08-26T20:55:40.922Z,19.35
2022-08-26T21:00:45.603Z,19.28
2022-08-26T21:05:53.197Z,19.21
2022-08-26T21:10:57.793Z,19.15
2022-08-26T21:16:02.879Z,19.17
2022-08-26T21:21:11.368Z,19.17
2022-08-26T21:26:19.041Z,19.20
2022-08-26T21:31:25.242Z,19.22
2022-08-26T21:36:32.557Z,19.27
2022-08-26T21:41:37.108Z,19.27
2022-08-26T21:46:41.827Z,19.27
2022-08-26T21:51:50.527Z,19.28
2022-08-26T21:56:55.152Z,19.29
2022-08-26T22:02:00.382Z,19.30
2022-08-26T22:07:07.893Z,19.32
2022-08-26T22:12:13.760Z,19.32
2022-08-26T22:17:18.379Z,19.33
2022-08-26T22:22:33.506Z,19.31
2022-08-26T22:27:40.560Z,19.33
2022-08-26T22:32:47.658Z,19.32
2022-08-26T22:37:54.961Z,19.33
2022-08-26T22:43:02.387Z,19.30
2022-08-26T22:48:08.524Z,19.28
2022-08-26T22:53:16.443Z,19.28
2022-08-26T22:58:21.846Z,19.27
2022-08-26T23:03:36.662Z,19.17
2022-08-26T23:08:46.455Z,19.13
2022-08-26T23:13:51.029Z,19.05
2022-08-26T23:18:55.852Z,18.94
2022-08-26T23:24:03.651Z,18.88
2022-08-26T23:29:10.482Z,18.83
2022-08-26T23:34:29.393Z,18.77
2022-08-26T23:39:38.155Z,18.74
2022-08-26T23:44:42.789Z,18.74
2022-08-26T23:49:47.429Z,18.74
2022-08-26T23:54:54.830Z,18.72
2022-08-26T23:59:59.644Z,18.73
